Newport Municipal Airport
KONP : rendu visible

Aérodrome :











RETROUVEZ-NOUS SUR...

 
LOGIN :

S'inscrire | Disclaimer

   EN    FR    IT 

 









Légende :    VFR   VFR Marginal   IFR   IFR Intensif   IFR Très Intensif
Visi : 
Plafond : 
>= 8 km
>= 3000ft
5 à 8 km
1000 à 3000 ft
1500m à 5 km
500 à 1000 ft
800 à 1500m
200 à 500 ft
< 800m
< 200 ft
Symboles :   Orages  Brouillard  Fortes neiges  Fortes précipitations  Vent > 20 kt






- Altitude de l'aérodrome : 160 ft


KONP - Newport Municipal

DERNIER METAR :
  • 171255Z AUTO 12003KT 7SM CLR 07/07 A3021 RMK AO2

METARs EXPIRÉS :
  • 171235Z AUTO 00000KT 4SM BR CLR 07/07 A3021 RMK AO2
  • 171215Z AUTO 00000KT 10SM CLR 08/08 A3020 RMK AO2
  • 171155Z AUTO 00000KT 10SM CLR 09/08 A3019 RMK AO2
  • 171135Z AUTO 09003KT 10SM SCT110 10/09 A3019 RMK AO2
  • 171115Z AUTO 10006KT 10SM BKN110 09/09 A3019 RMK AO2
  • 171055Z AUTO 11004KT 10SM CLR 08/08 A3020 RMK AO2
  • 171035Z AUTO 00000KT 10SM CLR 08/08 A3021 RMK AO2
  • 171015Z AUTO 00000KT 10SM CLR 09/08 A3021 RMK AO2

TAF KONP
Valide du 17 à 12h jusqu'au 18 à 12h UTC


171147Z 1712/1812 10006KT P6SM BKN080 OVC120
FM171600 19005KT 4SM BR OVC020
FM172200 20004KT 4SM BR OVC012
FM180300 08004KT 2SM BR OVC005



MET'MAP, la Météo Aéronautique d'un coup d'oeil ! - Copyright ORBIFLY Décembre 2007 - Disclaimer

ORBIFLY MET'MAP TEAM :

Programmation & Développement : Alexandra Zaïnal
Conception & Développement : Baudouin d'Aumeries
Co-Programmation & Développement : Marc-Olivier Méhu
Soutien technique & logistique : Manuel Goepfert

Contact : metmap@orbifly.com




SOURCES & CREDITS :

   NOAA       Earth
Advisory